sensor_id;sensor_type;location;lat;lon;timestamp;P1;durP1;ratioP1;P2;durP2;ratioP2
15132;SDS011;7667;51.232;17.110;2023-06-19T00:02:17;8.40;;;7.60;;
15132;SDS011;7667;51.232;17.110;2023-06-19T00:04:45;10.17;;;9.17;;
15132;SDS011;7667;51.232;17.110;2023-06-19T00:07:13;17.40;;;15.77;;
15132;SDS011;7667;51.232;17.110;2023-06-19T00:09:40;13.30;;;12.10;;
15132;SDS011;7667;51.232;17.110;2023-06-19T00:12:08;9.93;;;9.00;;
15132;SDS011;7667;51.232;17.110;2023-06-19T00:14:36;8.53;;;7.80;;
15132;SDS011;7667;51.232;17.110;2023-06-19T00:17:04;8.13;;;7.43;;
15132;SDS011;7667;51.232;17.110;2023-06-19T00:19:32;9.30;;;8.50;;
15132;SDS011;7667;51.232;17.110;2023-06-19T00:22:03;9.93;;;9.03;;
15132;SDS011;7667;51.232;17.110;2023-06-19T00:24:31;11.00;;;9.90;;
15132;SDS011;7667;51.232;17.110;2023-06-19T00:26:59;9.70;;;8.80;;
15132;SDS011;7667;51.232;17.110;2023-06-19T00:29:30;8.90;;;8.17;;
15132;SDS011;7667;51.232;17.110;2023-06-19T00:31:58;9.43;;;8.53;;
15132;SDS011;7667;51.232;17.110;2023-06-19T00:34:28;7.40;;;6.70;;
15132;SDS011;7667;51.232;17.110;2023-06-19T00:36:57;8.30;;;7.30;;
15132;SDS011;7667;51.232;17.110;2023-06-19T00:39:25;8.70;;;7.83;;
15132;SDS011;7667;51.232;17.110;2023-06-19T00:41:54;8.73;;;7.90;;
15132;SDS011;7667;51.232;17.110;2023-06-19T00:44:23;9.30;;;8.40;;
15132;SDS011;7667;51.232;17.110;2023-06-19T00:46:51;9.93;;;8.93;;
15132;SDS011;7667;51.232;17.110;2023-06-19T00:49:26;9.77;;;8.93;;
15132;SDS011;7667;51.232;17.110;2023-06-19T00:51:56;9.93;;;9.03;;
15132;SDS011;7667;51.232;17.110;2023-06-19T00:54:25;9.13;;;8.33;;
15132;SDS011;7667;51.232;17.110;2023-06-19T00:56:53;8.97;;;8.10;;
15132;SDS011;7667;51.232;17.110;2023-06-19T00:59:20;9.50;;;7.77;;
15132;SDS011;7667;51.232;17.110;2023-06-19T01:01:49;8.40;;;7.60;;
15132;SDS011;7667;51.232;17.110;2023-06-19T01:04:17;7.43;;;6.80;;
15132;SDS011;7667;51.232;17.110;2023-06-19T01:09:40;7.73;;;7.03;;
15132;SDS011;7667;51.232;17.110;2023-06-19T01:12:22;8.30;;;7.50;;
15132;SDS011;7667;51.232;17.110;2023-06-19T01:14:59;8.13;;;7.43;;
15132;SDS011;7667;51.232;17.110;2023-06-19T01:17:31;7.80;;;7.10;;
15132;SDS011;7667;51.232;17.110;2023-06-19T01:20:00;8.23;;;7.33;;
15132;SDS011;7667;51.232;17.110;2023-06-19T01:22:37;7.47;;;6.87;;
15132;SDS011;7667;51.232;17.110;2023-06-19T01:25:05;7.80;;;7.07;;
15132;SDS011;7667;51.232;17.110;2023-06-19T01:27:33;7.97;;;7.17;;
15132;SDS011;7667;51.232;17.110;2023-06-19T01:30:02;8.20;;;7.40;;
15132;SDS011;7667;51.232;17.110;2023-06-19T01:35:08;14.23;;;12.73;;
15132;SDS011;7667;51.232;17.110;2023-06-19T01:37:38;11.10;;;10.00;;
15132;SDS011;7667;51.232;17.110;2023-06-19T01:40:08;9.57;;;8.67;;
15132;SDS011;7667;51.232;17.110;2023-06-19T01:42:38;8.67;;;7.83;;
15132;SDS011;7667;51.232;17.110;2023-06-19T01:45:07;8.07;;;7.27;;
15132;SDS011;7667;51.232;17.110;2023-06-19T01:47:35;12.70;;;11.50;;
15132;SDS011;7667;51.232;17.110;2023-06-19T01:50:03;12.10;;;10.90;;
15132;SDS011;7667;51.232;17.110;2023-06-19T01:52:32;16.97;;;14.17;;
15132;SDS011;7667;51.232;17.110;2023-06-19T01:55:00;10.60;;;9.50;;
15132;SDS011;7667;51.232;17.110;2023-06-19T01:57:29;8.97;;;8.17;;
15132;SDS011;7667;51.232;17.110;2023-06-19T01:59:57;9.60;;;8.40;;
15132;SDS011;7667;51.232;17.110;2023-06-19T02:02:24;11.37;;;9.77;;
15132;SDS011;7667;51.232;17.110;2023-06-19T02:04:52;16.03;;;12.87;;
15132;SDS011;7667;51.232;17.110;2023-06-19T02:07:20;19.70;;;16.90;;
15132;SDS011;7667;51.232;17.110;2023-06-19T02:09:48;12.70;;;11.50;;
15132;SDS011;7667;51.232;17.110;2023-06-19T02:12:15;10.40;;;9.20;;
15132;SDS011;7667;51.232;17.110;2023-06-19T02:14:43;9.70;;;8.90;;
15132;SDS011;7667;51.232;17.110;2023-06-19T02:17:10;9.53;;;8.73;;
15132;SDS011;7667;51.232;17.110;2023-06-19T02:19:38;10.43;;;9.60;;
15132;SDS011;7667;51.232;17.110;2023-06-19T02:22:06;10.70;;;9.70;;
15132;SDS011;7667;51.232;17.110;2023-06-19T02:24:34;8.43;;;7.67;;
15132;SDS011;7667;51.232;17.110;2023-06-19T02:27:04;8.67;;;7.87;;
15132;SDS011;7667;51.232;17.110;2023-06-19T02:29:32;10.03;;;9.03;;
15132;SDS011;7667;51.232;17.110;2023-06-19T02:32:00;9.90;;;8.90;;
15132;SDS011;7667;51.232;17.110;2023-06-19T02:34:29;10.23;;;9.30;;
15132;SDS011;7667;51.232;17.110;2023-06-19T02:36:56;10.37;;;9.43;;
15132;SDS011;7667;51.232;17.110;2023-06-19T02:39:24;10.80;;;9.20;;
15132;SDS011;7667;51.232;17.110;2023-06-19T02:41:52;10.57;;;8.43;;
15132;SDS011;7667;51.232;17.110;2023-06-19T02:44:19;8.63;;;7.93;;
15132;SDS011;7667;51.232;17.110;2023-06-19T02:46:47;8.80;;;7.63;;
15132;SDS011;7667;51.232;17.110;2023-06-19T02:49:14;8.03;;;7.30;;
15132;SDS011;7667;51.232;17.110;2023-06-19T02:51:42;8.33;;;7.60;;
15132;SDS011;7667;51.232;17.110;2023-06-19T02:54:10;9.17;;;7.43;;
15132;SDS011;7667;51.232;17.110;2023-06-19T02:56:37;8.30;;;7.13;;
15132;SDS011;7667;51.232;17.110;2023-06-19T02:59:05;8.00;;;7.20;;
15132;SDS011;7667;51.232;17.110;2023-06-19T03:01:33;8.40;;;7.60;;
15132;SDS011;7667;51.232;17.110;2023-06-19T03:04:01;10.87;;;7.57;;
15132;SDS011;7667;51.232;17.110;2023-06-19T03:06:28;8.73;;;7.90;;
15132;SDS011;7667;51.232;17.110;2023-06-19T03:08:56;12.90;;;9.23;;
15132;SDS011;7667;51.232;17.110;2023-06-19T03:11:23;10.30;;;7.93;;
15132;SDS011;7667;51.232;17.110;2023-06-19T03:13:51;8.43;;;7.63;;
15132;SDS011;7667;51.232;17.110;2023-06-19T03:16:21;9.47;;;7.87;;
15132;SDS011;7667;51.232;17.110;2023-06-19T03:18:48;10.93;;;7.77;;
15132;SDS011;7667;51.232;17.110;2023-06-19T03:21:18;8.43;;;7.47;;
15132;SDS011;7667;51.232;17.110;2023-06-19T03:23:46;8.87;;;8.07;;
15132;SDS011;7667;51.232;17.110;2023-06-19T03:26:14;10.10;;;9.20;;
15132;SDS011;7667;51.232;17.110;2023-06-19T03:28:42;10.00;;;9.00;;
15132;SDS011;7667;51.232;17.110;2023-06-19T03:31:09;9.90;;;8.93;;
15132;SDS011;7667;51.232;17.110;2023-06-19T03:33:37;10.37;;;8.93;;
15132;SDS011;7667;51.232;17.110;2023-06-19T03:36:05;9.77;;;8.77;;
15132;SDS011;7667;51.232;17.110;2023-06-19T03:38:33;10.27;;;9.33;;
15132;SDS011;7667;51.232;17.110;2023-06-19T03:41:01;10.27;;;8.80;;
15132;SDS011;7667;51.232;17.110;2023-06-19T03:43:29;10.30;;;9.30;;
15132;SDS011;7667;51.232;17.110;2023-06-19T03:45:56;10.00;;;8.90;;
15132;SDS011;7667;51.232;17.110;2023-06-19T03:48:24;9.90;;;8.90;;
15132;SDS011;7667;51.232;17.110;2023-06-19T03:50:51;11.23;;;10.20;;
15132;SDS011;7667;51.232;17.110;2023-06-19T03:53:19;12.03;;;10.83;;
15132;SDS011;7667;51.232;17.110;2023-06-19T03:55:47;12.37;;;11.17;;
15132;SDS011;7667;51.232;17.110;2023-06-19T03:58:14;10.93;;;9.93;;
15132;SDS011;7667;51.232;17.110;2023-06-19T04:00:42;11.97;;;10.87;;
15132;SDS011;7667;51.232;17.110;2023-06-19T04:03:10;12.17;;;10.80;;
15132;SDS011;7667;51.232;17.110;2023-06-19T04:05:38;12.37;;;11.20;;
15132;SDS011;7667;51.232;17.110;2023-06-19T04:08:08;12.97;;;11.77;;
15132;SDS011;7667;51.232;17.110;2023-06-19T04:10:35;13.67;;;12.27;;
15132;SDS011;7667;51.232;17.110;2023-06-19T04:13:03;13.00;;;11.80;;
15132;SDS011;7667;51.232;17.110;2023-06-19T04:15:33;13.80;;;12.27;;
15132;SDS011;7667;51.232;17.110;2023-06-19T04:18:02;13.37;;;12.07;;
15132;SDS011;7667;51.232;17.110;2023-06-19T04:20:30;14.17;;;12.53;;
15132;SDS011;7667;51.232;17.110;2023-06-19T04:22:57;13.63;;;12.20;;
15132;SDS011;7667;51.232;17.110;2023-06-19T04:25:25;13.60;;;12.30;;
15132;SDS011;7667;51.232;17.110;2023-06-19T04:27:53;13.30;;;12.03;;
15132;SDS011;7667;51.232;17.110;2023-06-19T04:30:21;14.80;;;13.23;;
15132;SDS011;7667;51.232;17.110;2023-06-19T04:32:49;12.03;;;10.93;;
15132;SDS011;7667;51.232;17.110;2023-06-19T04:35:17;12.53;;;11.30;;
15132;SDS011;7667;51.232;17.110;2023-06-19T04:37:45;13.60;;;12.00;;
15132;SDS011;7667;51.232;17.110;2023-06-19T04:40:15;13.00;;;11.67;;
15132;SDS011;7667;51.232;17.110;2023-06-19T04:42:43;12.07;;;10.97;;
15132;SDS011;7667;51.232;17.110;2023-06-19T04:45:10;12.63;;;11.40;;
15132;SDS011;7667;51.232;17.110;2023-06-19T04:47:38;12.10;;;11.00;;
15132;SDS011;7667;51.232;17.110;2023-06-19T04:50:19;12.23;;;11.03;;
15132;SDS011;7667;51.232;17.110;2023-06-19T04:52:50;11.83;;;10.73;;
15132;SDS011;7667;51.232;17.110;2023-06-19T04:55:18;14.97;;;12.20;;
15132;SDS011;7667;51.232;17.110;2023-06-19T04:57:46;13.10;;;11.90;;
15132;SDS011;7667;51.232;17.110;2023-06-19T05:00:14;11.57;;;10.47;;
15132;SDS011;7667;51.232;17.110;2023-06-19T05:02:46;12.57;;;11.43;;
15132;SDS011;7667;51.232;17.110;2023-06-19T05:05:14;12.37;;;11.17;;
15132;SDS011;7667;51.232;17.110;2023-06-19T05:07:50;12.60;;;11.30;;
15132;SDS011;7667;51.232;17.110;2023-06-19T05:10:17;13.83;;;11.70;;
15132;SDS011;7667;51.232;17.110;2023-06-19T05:12:46;13.13;;;11.90;;
15132;SDS011;7667;51.232;17.110;2023-06-19T05:15:13;12.47;;;11.30;;
15132;SDS011;7667;51.232;17.110;2023-06-19T05:17:41;12.23;;;11.17;;
15132;SDS011;7667;51.232;17.110;2023-06-19T05:20:09;12.93;;;11.73;;
15132;SDS011;7667;51.232;17.110;2023-06-19T05:22:38;12.47;;;10.83;;
15132;SDS011;7667;51.232;17.110;2023-06-19T05:25:06;13.77;;;12.23;;
15132;SDS011;7667;51.232;17.110;2023-06-19T05:27:34;13.63;;;11.67;;
15132;SDS011;7667;51.232;17.110;2023-06-19T05:30:02;12.77;;;11.57;;
15132;SDS011;7667;51.232;17.110;2023-06-19T05:32:31;13.17;;;11.87;;
15132;SDS011;7667;51.232;17.110;2023-06-19T05:34:59;14.17;;;12.77;;
15132;SDS011;7667;51.232;17.110;2023-06-19T05:37:26;12.53;;;11.27;;
15132;SDS011;7667;51.232;17.110;2023-06-19T05:39:54;13.60;;;12.23;;
15132;SDS011;7667;51.232;17.110;2023-06-19T05:42:22;14.87;;;13.33;;
15132;SDS011;7667;51.232;17.110;2023-06-19T05:44:49;15.23;;;13.00;;
15132;SDS011;7667;51.232;17.110;2023-06-19T05:47:17;13.63;;;12.33;;
15132;SDS011;7667;51.232;17.110;2023-06-19T05:49:47;14.37;;;12.87;;
15132;SDS011;7667;51.232;17.110;2023-06-19T05:52:15;13.03;;;11.73;;
15132;SDS011;7667;51.232;17.110;2023-06-19T05:54:43;13.30;;;11.60;;
15132;SDS011;7667;51.232;17.110;2023-06-19T05:57:11;13.17;;;11.87;;
15132;SDS011;7667;51.232;17.110;2023-06-19T05:59:38;11.03;;;9.90;;
15132;SDS011;7667;51.232;17.110;2023-06-19T06:02:08;10.30;;;9.30;;
15132;SDS011;7667;51.232;17.110;2023-06-19T06:04:35;11.37;;;10.10;;
15132;SDS011;7667;51.232;17.110;2023-06-19T06:07:03;11.20;;;9.97;;
15132;SDS011;7667;51.232;17.110;2023-06-19T06:09:32;13.53;;;9.57;;
15132;SDS011;7667;51.232;17.110;2023-06-19T06:12:02;12.37;;;10.53;;
15132;SDS011;7667;51.232;17.110;2023-06-19T06:14:30;10.43;;;9.33;;
15132;SDS011;7667;51.232;17.110;2023-06-19T06:16:58;11.63;;;9.13;;
15132;SDS011;7667;51.232;17.110;2023-06-19T06:19:26;11.30;;;9.23;;
15132;SDS011;7667;51.232;17.110;2023-06-19T06:21:55;11.73;;;9.70;;
15132;SDS011;7667;51.232;17.110;2023-06-19T06:24:22;10.10;;;8.83;;
15132;SDS011;7667;51.232;17.110;2023-06-19T06:26:50;10.37;;;8.93;;
15132;SDS011;7667;51.232;17.110;2023-06-19T06:29:18;10.80;;;9.63;;
15132;SDS011;7667;51.232;17.110;2023-06-19T06:31:46;10.83;;;8.83;;
15132;SDS011;7667;51.232;17.110;2023-06-19T06:34:14;10.17;;;8.90;;
15132;SDS011;7667;51.232;17.110;2023-06-19T06:36:41;10.43;;;9.20;;
15132;SDS011;7667;51.232;17.110;2023-06-19T06:39:26;11.20;;;9.55;;
15132;SDS011;7667;51.232;17.110;2023-06-19T06:41:54;10.73;;;8.52;;
15132;SDS011;7667;51.232;17.110;2023-06-19T06:44:22;9.70;;;8.43;;
15132;SDS011;7667;51.232;17.110;2023-06-19T06:46:49;10.10;;;8.95;;
15132;SDS011;7667;51.232;17.110;2023-06-19T06:49:20;9.77;;;8.70;;
15132;SDS011;7667;51.232;17.110;2023-06-19T06:51:48;10.55;;;8.75;;
15132;SDS011;7667;51.232;17.110;2023-06-19T06:54:16;10.73;;;9.05;;
15132;SDS011;7667;51.232;17.110;2023-06-19T06:56:44;10.77;;;9.00;;
15132;SDS011;7667;51.232;17.110;2023-06-19T06:59:14;12.57;;;9.25;;
15132;SDS011;7667;51.232;17.110;2023-06-19T07:01:42;9.13;;;8.07;;
15132;SDS011;7667;51.232;17.110;2023-06-19T07:04:09;9.98;;;8.23;;
15132;SDS011;7667;51.232;17.110;2023-06-19T07:06:37;8.90;;;8.00;;
15132;SDS011;7667;51.232;17.110;2023-06-19T07:09:05;9.77;;;8.60;;
15132;SDS011;7667;51.232;17.110;2023-06-19T07:11:32;10.95;;;8.85;;
15132;SDS011;7667;51.232;17.110;2023-06-19T07:14:00;8.85;;;8.05;;
15132;SDS011;7667;51.232;17.110;2023-06-19T07:16:29;8.20;;;6.97;;
15132;SDS011;7667;51.232;17.110;2023-06-19T07:18:56;8.57;;;7.75;;
15132;SDS011;7667;51.232;17.110;2023-06-19T07:21:24;8.05;;;6.38;;
15132;SDS011;7667;51.232;17.110;2023-06-19T07:23:55;7.90;;;6.03;;
15132;SDS011;7667;51.232;17.110;2023-06-19T07:26:23;6.53;;;5.93;;
15132;SDS011;7667;51.232;17.110;2023-06-19T07:28:50;7.22;;;6.25;;
15132;SDS011;7667;51.232;17.110;2023-06-19T07:31:18;6.35;;;5.75;;
15132;SDS011;7667;51.232;17.110;2023-06-19T07:33:46;7.65;;;6.82;;
15132;SDS011;7667;51.232;17.110;2023-06-19T07:36:13;7.15;;;6.05;;
15132;SDS011;7667;51.232;17.110;2023-06-19T07:38:43;7.03;;;5.70;;
15132;SDS011;7667;51.232;17.110;2023-06-19T07:41:11;7.18;;;6.50;;
15132;SDS011;7667;51.232;17.110;2023-06-19T07:43:39;7.45;;;6.43;;
15132;SDS011;7667;51.232;17.110;2023-06-19T07:46:06;8.05;;;6.53;;
15132;SDS011;7667;51.232;17.110;2023-06-19T07:48:34;7.40;;;6.32;;
15132;SDS011;7667;51.232;17.110;2023-06-19T07:51:02;7.32;;;6.63;;
15132;SDS011;7667;51.232;17.110;2023-06-19T07:53:29;7.07;;;6.47;;
15132;SDS011;7667;51.232;17.110;2023-06-19T07:55:57;6.28;;;5.78;;
15132;SDS011;7667;51.232;17.110;2023-06-19T07:58:24;6.97;;;6.25;;
15132;SDS011;7667;51.232;17.110;2023-06-19T08:00:52;6.93;;;6.05;;
15132;SDS011;7667;51.232;17.110;2023-06-19T08:03:20;6.28;;;5.65;;
15132;SDS011;7667;51.232;17.110;2023-06-19T08:05:48;5.97;;;5.38;;
15132;SDS011;7667;51.232;17.110;2023-06-19T08:08:16;5.60;;;5.07;;
15132;SDS011;7667;51.232;17.110;2023-06-19T08:10:43;5.97;;;5.38;;
15132;SDS011;7667;51.232;17.110;2023-06-19T08:13:11;7.20;;;5.45;;
15132;SDS011;7667;51.232;17.110;2023-06-19T08:15:39;6.30;;;5.70;;
15132;SDS011;7667;51.232;17.110;2023-06-19T08:18:06;7.45;;;5.68;;
15132;SDS011;7667;51.232;17.110;2023-06-19T08:20:34;6.65;;;5.97;;
15132;SDS011;7667;51.232;17.110;2023-06-19T08:23:01;6.90;;;6.20;;
15132;SDS011;7667;51.232;17.110;2023-06-19T08:25:32;7.95;;;6.13;;
15132;SDS011;7667;51.232;17.110;2023-06-19T08:27:59;5.38;;;4.88;;
15132;SDS011;7667;51.232;17.110;2023-06-19T08:30:27;6.07;;;5.57;;
15132;SDS011;7667;51.232;17.110;2023-06-19T08:32:55;6.43;;;5.80;;
15132;SDS011;7667;51.232;17.110;2023-06-19T08:35:23;5.85;;;5.25;;
15132;SDS011;7667;51.232;17.110;2023-06-19T08:37:50;7.80;;;5.10;;
15132;SDS011;7667;51.232;17.110;2023-06-19T08:40:19;5.13;;;4.60;;
15132;SDS011;7667;51.232;17.110;2023-06-19T08:42:47;5.03;;;4.57;;
15132;SDS011;7667;51.232;17.110;2023-06-19T08:45:15;5.22;;;4.57;;
15132;SDS011;7667;51.232;17.110;2023-06-19T08:47:45;5.03;;;4.47;;
15132;SDS011;7667;51.232;17.110;2023-06-19T08:50:15;4.78;;;4.38;;
15132;SDS011;7667;51.232;17.110;2023-06-19T08:52:43;4.88;;;4.40;;
15132;SDS011;7667;51.232;17.110;2023-06-19T08:55:11;5.05;;;4.55;;
15132;SDS011;7667;51.232;17.110;2023-06-19T08:57:38;5.45;;;4.95;;
15132;SDS011;7667;51.232;17.110;2023-06-19T09:00:06;4.63;;;4.20;;
15132;SDS011;7667;51.232;17.110;2023-06-19T09:02:41;5.70;;;5.05;;
15132;SDS011;7667;51.232;17.110;2023-06-19T09:05:26;5.03;;;4.53;;
15132;SDS011;7667;51.232;17.110;2023-06-19T09:07:54;4.35;;;4.05;;
15132;SDS011;7667;51.232;17.110;2023-06-19T09:10:25;4.72;;;4.32;;
15132;SDS011;7667;51.232;17.110;2023-06-19T09:13:02;4.70;;;4.30;;
15132;SDS011;7667;51.232;17.110;2023-06-19T09:15:32;4.60;;;4.20;;
15132;SDS011;7667;51.232;17.110;2023-06-19T09:18:06;6.82;;;4.07;;
15132;SDS011;7667;51.232;17.110;2023-06-19T09:20:39;5.03;;;4.47;;
15132;SDS011;7667;51.232;17.110;2023-06-19T09:23:11;4.28;;;3.85;;
15132;SDS011;7667;51.232;17.110;2023-06-19T09:25:45;4.38;;;3.97;;
15132;SDS011;7667;51.232;17.110;2023-06-19T09:30:54;4.00;;;3.70;;
15132;SDS011;7667;51.232;17.110;2023-06-19T09:33:27;4.65;;;4.25;;
15132;SDS011;7667;51.232;17.110;2023-06-19T09:36:01;4.10;;;3.80;;
15132;SDS011;7667;51.232;17.110;2023-06-19T09:38:32;4.60;;;4.30;;
15132;SDS011;7667;51.232;17.110;2023-06-19T09:41:05;4.35;;;3.97;;
15132;SDS011;7667;51.232;17.110;2023-06-19T09:46:11;5.03;;;4.38;;
15132;SDS011;7667;51.232;17.110;2023-06-19T09:48:42;4.63;;;4.22;;
15132;SDS011;7667;51.232;17.110;2023-06-19T09:51:27;4.78;;;4.38;;
15132;SDS011;7667;51.232;17.110;2023-06-19T09:54:04;5.38;;;4.72;;
15132;SDS011;7667;51.232;17.110;2023-06-19T09:56:33;5.60;;;5.10;;
15132;SDS011;7667;51.232;17.110;2023-06-19T09:59:01;5.00;;;4.60;;
15132;SDS011;7667;51.232;17.110;2023-06-19T10:01:31;5.43;;;4.85;;
15132;SDS011;7667;51.232;17.110;2023-06-19T10:04:03;5.50;;;5.00;;
15132;SDS011;7667;51.232;17.110;2023-06-19T10:06:44;6.50;;;4.88;;
15132;SDS011;7667;51.232;17.110;2023-06-19T10:09:14;5.18;;;4.68;;
15132;SDS011;7667;51.232;17.110;2023-06-19T10:11:52;6.07;;;4.80;;
15132;SDS011;7667;51.232;17.110;2023-06-19T10:14:20;5.30;;;4.72;;
15132;SDS011;7667;51.232;17.110;2023-06-19T10:16:49;4.70;;;4.30;;
15132;SDS011;7667;51.232;17.110;2023-06-19T10:19:20;5.22;;;4.72;;
15132;SDS011;7667;51.232;17.110;2023-06-19T10:21:50;4.95;;;4.45;;
15132;SDS011;7667;51.232;17.110;2023-06-19T10:24:22;5.50;;;4.95;;
15132;SDS011;7667;51.232;17.110;2023-06-19T10:26:58;4.18;;;3.88;;
15132;SDS011;7667;51.232;17.110;2023-06-19T10:29:38;4.57;;;4.18;;
15132;SDS011;7667;51.232;17.110;2023-06-19T10:32:12;4.47;;;4.07;;
15132;SDS011;7667;51.232;17.110;2023-06-19T10:34:40;4.20;;;3.90;;
15132;SDS011;7667;51.232;17.110;2023-06-19T10:37:16;4.80;;;4.30;;
15132;SDS011;7667;51.232;17.110;2023-06-19T10:39:44;4.20;;;3.90;;
15132;SDS011;7667;51.232;17.110;2023-06-19T10:42:11;4.15;;;3.80;;
15132;SDS011;7667;51.232;17.110;2023-06-19T10:44:39;4.22;;;3.83;;
15132;SDS011;7667;51.232;17.110;2023-06-19T10:47:08;4.10;;;3.80;;
15132;SDS011;7667;51.232;17.110;2023-06-19T10:49:37;4.53;;;3.80;;
15132;SDS011;7667;51.232;17.110;2023-06-19T10:52:04;4.63;;;4.22;;
15132;SDS011;7667;51.232;17.110;2023-06-19T10:54:33;4.57;;;4.18;;
15132;SDS011;7667;51.232;17.110;2023-06-19T10:57:03;4.65;;;4.30;;
15132;SDS011;7667;51.232;17.110;2023-06-19T10:59:33;4.25;;;3.92;;
15132;SDS011;7667;51.232;17.110;2023-06-19T11:02:01;3.88;;;3.58;;
15132;SDS011;7667;51.232;17.110;2023-06-19T11:04:29;3.95;;;3.63;;
15132;SDS011;7667;51.232;17.110;2023-06-19T11:06:57;16.13;;;11.02;;
15132;SDS011;7667;51.232;17.110;2023-06-19T11:09:31;4.85;;;4.00;;
15132;SDS011;7667;51.232;17.110;2023-06-19T11:11:59;4.32;;;3.95;;
15132;SDS011;7667;51.232;17.110;2023-06-19T11:14:29;4.60;;;4.20;;
15132;SDS011;7667;51.232;17.110;2023-06-19T11:16:57;4.25;;;3.95;;
15132;SDS011;7667;51.232;17.110;2023-06-19T11:19:29;6.68;;;4.95;;
15132;SDS011;7667;51.232;17.110;2023-06-19T11:21:58;4.43;;;4.03;;
15132;SDS011;7667;51.232;17.110;2023-06-19T11:24:27;4.88;;;4.47;;
15132;SDS011;7667;51.232;17.110;2023-06-19T11:26:56;4.00;;;3.70;;
15132;SDS011;7667;51.232;17.110;2023-06-19T11:29:26;4.38;;;3.92;;
15132;SDS011;7667;51.232;17.110;2023-06-19T11:32:07;4.90;;;3.80;;
15132;SDS011;7667;51.232;17.110;2023-06-19T11:34:37;4.95;;;4.53;;
15132;SDS011;7667;51.232;17.110;2023-06-19T11:37:11;4.38;;;4.00;;
15132;SDS011;7667;51.232;17.110;2023-06-19T11:39:45;4.32;;;3.92;;
15132;SDS011;7667;51.232;17.110;2023-06-19T11:42:14;4.30;;;3.90;;
15132;SDS011;7667;51.232;17.110;2023-06-19T11:44:57;4.30;;;4.00;;
15132;SDS011;7667;51.232;17.110;2023-06-19T11:47:33;4.32;;;4.03;;
15132;SDS011;7667;51.232;17.110;2023-06-19T11:50:03;4.10;;;3.80;;
15132;SDS011;7667;51.232;17.110;2023-06-19T11:52:32;3.97;;;3.67;;
15132;SDS011;7667;51.232;17.110;2023-06-19T11:55:00;4.00;;;3.60;;
15132;SDS011;7667;51.232;17.110;2023-06-19T11:57:28;4.22;;;3.90;;
15132;SDS011;7667;51.232;17.110;2023-06-19T11:59:56;5.25;;;4.05;;
15132;SDS011;7667;51.232;17.110;2023-06-19T12:02:24;5.05;;;4.38;;
15132;SDS011;7667;51.232;17.110;2023-06-19T12:04:51;4.43;;;4.10;;
15132;SDS011;7667;51.232;17.110;2023-06-19T12:07:20;4.72;;;4.32;;
15132;SDS011;7667;51.232;17.110;2023-06-19T12:09:48;4.28;;;3.97;;
15132;SDS011;7667;51.232;17.110;2023-06-19T12:12:15;5.05;;;4.18;;
15132;SDS011;7667;51.232;17.110;2023-06-19T12:14:43;4.80;;;4.30;;
15132;SDS011;7667;51.232;17.110;2023-06-19T12:17:10;4.53;;;4.13;;
15132;SDS011;7667;51.232;17.110;2023-06-19T12:19:38;4.30;;;3.90;;
15132;SDS011;7667;51.232;17.110;2023-06-19T12:22:06;4.93;;;4.43;;
15132;SDS011;7667;51.232;17.110;2023-06-19T12:24:33;4.03;;;3.65;;
15132;SDS011;7667;51.232;17.110;2023-06-19T12:27:01;4.22;;;3.85;;
15132;SDS011;7667;51.232;17.110;2023-06-19T12:29:29;4.43;;;4.03;;
15132;SDS011;7667;51.232;17.110;2023-06-19T12:32:00;4.53;;;4.20;;
15132;SDS011;7667;51.232;17.110;2023-06-19T12:34:31;4.18;;;3.80;;
15132;SDS011;7667;51.232;17.110;2023-06-19T12:36:59;4.78;;;4.38;;
15132;SDS011;7667;51.232;17.110;2023-06-19T12:39:26;4.68;;;4.18;;
15132;SDS011;7667;51.232;17.110;2023-06-19T12:41:54;5.57;;;4.35;;
15132;SDS011;7667;51.232;17.110;2023-06-19T12:44:22;4.57;;;4.20;;
15132;SDS011;7667;51.232;17.110;2023-06-19T12:46:51;4.28;;;3.92;;
15132;SDS011;7667;51.232;17.110;2023-06-19T12:49:19;4.88;;;4.00;;
15132;SDS011;7667;51.232;17.110;2023-06-19T12:51:47;5.72;;;4.72;;
15132;SDS011;7667;51.232;17.110;2023-06-19T12:54:18;4.68;;;4.28;;
15132;SDS011;7667;51.232;17.110;2023-06-19T12:56:46;4.30;;;3.90;;
15132;SDS011;7667;51.232;17.110;2023-06-19T12:59:13;4.60;;;4.20;;
15132;SDS011;7667;51.232;17.110;2023-06-19T13:01:41;4.53;;;4.15;;
15132;SDS011;7667;51.232;17.110;2023-06-19T13:04:10;6.30;;;4.35;;
15132;SDS011;7667;51.232;17.110;2023-06-19T13:06:39;4.82;;;4.32;;
15132;SDS011;7667;51.232;17.110;2023-06-19T13:09:07;4.60;;;4.20;;
15132;SDS011;7667;51.232;17.110;2023-06-19T13:11:34;4.97;;;4.57;;
15132;SDS011;7667;51.232;17.110;2023-06-19T13:14:02;4.28;;;3.97;;
15132;SDS011;7667;51.232;17.110;2023-06-19T13:16:31;4.60;;;4.20;;
15132;SDS011;7667;51.232;17.110;2023-06-19T13:19:13;5.05;;;4.45;;
15132;SDS011;7667;51.232;17.110;2023-06-19T13:21:41;4.53;;;4.13;;
15132;SDS011;7667;51.232;17.110;2023-06-19T13:24:10;4.53;;;4.13;;
15132;SDS011;7667;51.232;17.110;2023-06-19T13:26:38;5.20;;;4.63;;
15132;SDS011;7667;51.232;17.110;2023-06-19T13:29:06;4.47;;;4.07;;
15132;SDS011;7667;51.232;17.110;2023-06-19T13:31:33;5.95;;;4.18;;
15132;SDS011;7667;51.232;17.110;2023-06-19T13:34:01;5.18;;;4.32;;
15132;SDS011;7667;51.232;17.110;2023-06-19T13:36:29;5.20;;;4.28;;
15132;SDS011;7667;51.232;17.110;2023-06-19T13:38:57;4.82;;;3.90;;
15132;SDS011;7667;51.232;17.110;2023-06-19T13:41:25;5.35;;;4.47;;
15132;SDS011;7667;51.232;17.110;2023-06-19T13:43:53;4.40;;;4.00;;
15132;SDS011;7667;51.232;17.110;2023-06-19T13:46:21;4.40;;;4.00;;
15132;SDS011;7667;51.232;17.110;2023-06-19T13:48:49;4.30;;;3.88;;
15132;SDS011;7667;51.232;17.110;2023-06-19T13:51:19;4.57;;;4.18;;
15132;SDS011;7667;51.232;17.110;2023-06-19T13:53:49;4.43;;;4.13;;
15132;SDS011;7667;51.232;17.110;2023-06-19T13:56:18;4.90;;;4.40;;
15132;SDS011;7667;51.232;17.110;2023-06-19T13:58:46;4.63;;;4.22;;
15132;SDS011;7667;51.232;17.110;2023-06-19T14:01:14;4.68;;;4.28;;
15132;SDS011;7667;51.232;17.110;2023-06-19T14:03:42;4.13;;;3.83;;
15132;SDS011;7667;51.232;17.110;2023-06-19T14:06:10;4.40;;;4.00;;
15132;SDS011;7667;51.232;17.110;2023-06-19T14:08:39;5.05;;;4.47;;
15132;SDS011;7667;51.232;17.110;2023-06-19T14:11:06;4.65;;;4.18;;
15132;SDS011;7667;51.232;17.110;2023-06-19T14:13:35;4.97;;;4.07;;
15132;SDS011;7667;51.232;17.110;2023-06-19T14:16:02;7.22;;;4.30;;
15132;SDS011;7667;51.232;17.110;2023-06-19T14:18:30;4.70;;;4.30;;
15132;SDS011;7667;51.232;17.110;2023-06-19T14:20:58;4.90;;;4.50;;
15132;SDS011;7667;51.232;17.110;2023-06-19T14:23:25;5.20;;;4.32;;
15132;SDS011;7667;51.232;17.110;2023-06-19T14:25:53;5.50;;;4.30;;
15132;SDS011;7667;51.232;17.110;2023-06-19T14:28:21;5.50;;;4.40;;
15132;SDS011;7667;51.232;17.110;2023-06-19T14:30:48;4.97;;;4.53;;
15132;SDS011;7667;51.232;17.110;2023-06-19T14:33:16;4.55;;;4.15;;
15132;SDS011;7667;51.232;17.110;2023-06-19T14:35:44;4.53;;;4.13;;
15132;SDS011;7667;51.232;17.110;2023-06-19T14:38:13;4.80;;;4.40;;
15132;SDS011;7667;51.232;17.110;2023-06-19T14:40:43;4.30;;;4.00;;
15132;SDS011;7667;51.232;17.110;2023-06-19T14:43:11;4.45;;;4.15;;
15132;SDS011;7667;51.232;17.110;2023-06-19T14:45:39;5.55;;;4.10;;
15132;SDS011;7667;51.232;17.110;2023-06-19T14:48:07;4.28;;;3.72;;
15132;SDS011;7667;51.232;17.110;2023-06-19T14:50:35;4.25;;;3.85;;
15132;SDS011;7667;51.232;17.110;2023-06-19T14:53:03;4.60;;;4.20;;
15132;SDS011;7667;51.232;17.110;2023-06-19T14:55:30;4.53;;;3.90;;
15132;SDS011;7667;51.232;17.110;2023-06-19T14:57:58;5.25;;;4.40;;
15132;SDS011;7667;51.232;17.110;2023-06-19T15:00:26;4.60;;;4.20;;
15132;SDS011;7667;51.232;17.110;2023-06-19T15:02:53;5.25;;;4.25;;